Time;durP1;ratioP1;P1;durP2;ratioP2;P2;SDS_P1;SDS_P2;PMS_P1;PMS_P2;Temp;Humidity;BMP_temperature;BMP_pressure;BME280_temperature;BME280_humidity;BME280_pressure;Samples;Min_cycle;Max_cycle;Signal;HPM_P1;HPM_P2
2023/12/23 00:00:21;;;;;;;10.20;9.40;;;21.30;74.30;;;;;;5036421;28;20488;-59
2023/12/23 00:02:49;;;;;;;10.25;9.35;;;21.30;74.20;;;;;;5039797;28;20955;-59
2023/12/23 00:05:16;;;;;;;10.00;9.20;;;21.30;74.10;;;;;;5027660;28;20198;-60
2023/12/23 00:07:42;;;;;;;10.50;9.60;;;21.30;74.50;;;;;;5027329;28;20458;-61
2023/12/23 00:10:09;;;;;;;8.48;7.70;;;21.30;74.50;;;;;;5028404;28;20465;-58
2023/12/23 00:12:36;;;;;;;16.23;7.43;;;21.30;74.70;;;;;;5033860;28;21101;-58
2023/12/23 00:15:03;;;;;;;20.23;7.50;;;21.30;74.50;;;;;;5031043;28;20457;-60
2023/12/23 00:17:30;;;;;;;33.63;8.27;;;21.30;75.30;;;;;;5037742;28;20837;-60
2023/12/23 00:20:02;;;;;;;11.17;7.47;;;21.30;75.40;;;;;;5039907;28;20466;-57
2023/12/23 00:22:28;;;;;;;7.13;6.53;;;21.30;74.60;;;;;;5037499;28;20519;-61
2023/12/23 00:24:55;;;;;;;7.82;7.00;;;21.30;74.40;;;;;;5039158;28;20468;-56
2023/12/23 00:27:22;;;;;;;7.30;6.00;;;21.30;74.50;;;;;;5037996;28;20844;-60
2023/12/23 00:29:49;;;;;;;8.73;6.85;;;21.30;74.60;;;;;;5037606;28;20966;-58
2023/12/23 00:32:15;;;;;;;7.70;7.00;;;21.30;74.50;;;;;;5040678;28;20202;-58
2023/12/23 00:34:42;;;;;;;8.90;6.50;;;21.30;74.40;;;;;;5038427;28;20464;-59
2023/12/23 00:37:10;;;;;;;6.43;5.83;;;21.30;74.30;;;;;;5039979;28;20199;-61
2023/12/23 00:39:39;;;;;;;5.87;5.03;;;21.30;74.30;;;;;;5037271;28;20452;-59
2023/12/23 00:42:06;;;;;;;5.20;4.80;;;21.20;74.20;;;;;;5038196;28;21237;-61
2023/12/23 00:44:32;;;;;;;5.83;4.90;;;21.30;74.50;;;;;;5040506;28;20487;-57
2023/12/23 00:46:59;;;;;;;5.83;5.33;;;21.20;74.30;;;;;;5041272;28;20457;-60
2023/12/23 00:49:26;;;;;;;6.40;5.33;;;21.20;74.20;;;;;;5037395;28;20544;-60
2023/12/23 00:51:53;;;;;;;5.00;4.60;;;21.20;74.20;;;;;;5036339;28;20459;-60
2023/12/23 00:54:23;;;;;;;5.37;4.60;;;21.20;74.30;;;;;;5036003;28;20975;-59
2023/12/23 00:56:49;;;;;;;5.35;4.80;;;21.20;74.10;;;;;;5036412;28;20467;-59
2023/12/23 00:59:17;;;;;;;5.73;5.13;;;21.20;74.10;;;;;;5036325;28;20207;-61
2023/12/23 01:01:44;;;;;;;4.17;3.80;;;21.20;74.10;;;;;;5036446;28;20486;-60
2023/12/23 01:04:10;;;;;;;4.40;4.00;;;21.20;74.20;;;;;;5041122;28;20475;-59
2023/12/23 01:06:37;;;;;;;4.77;4.37;;;21.20;74.00;;;;;;5035709;28;20463;-59
2023/12/23 01:09:04;;;;;;;5.05;4.45;;;21.20;74.10;;;;;;5036539;28;20470;-60
2023/12/23 01:11:32;;;;;;;3.70;3.40;;;21.20;74.30;;;;;;5031761;28;20689;-59
2023/12/23 01:13:59;;;;;;;3.47;3.17;;;21.20;74.20;;;;;;5035512;28;20196;-61
2023/12/23 01:16:25;;;;;;;4.57;3.20;;;21.10;74.10;;;;;;5038699;28;20953;-63
2023/12/23 01:18:52;;;;;;;4.13;3.83;;;21.20;74.20;;;;;;5037901;28;20493;-60
2023/12/23 01:21:20;;;;;;;3.30;3.10;;;21.20;74.30;;;;;;5039923;28;20233;-59
2023/12/23 01:23:46;;;;;;;3.38;3.08;;;21.10;74.20;;;;;;5034922;28;20841;-60
2023/12/23 01:26:13;;;;;;;3.78;3.47;;;21.10;74.20;;;;;;5032668;28;20200;-62
2023/12/23 01:28:41;;;;;;;4.50;3.08;;;21.10;74.00;;;;;;5033377;28;20202;-62
2023/12/23 01:31:08;;;;;;;3.87;3.17;;;21.10;74.00;;;;;;5038173;28;21158;-62
2023/12/23 01:33:35;;;;;;;3.55;3.25;;;21.10;74.10;;;;;;5035830;28;20459;-60
2023/12/23 01:36:05;;;;;;;3.27;2.77;;;21.10;74.00;;;;;;5036122;28;20939;-60
2023/12/23 01:38:32;;;;;;;4.03;3.63;;;21.10;74.10;;;;;;5034380;28;20469;-62
2023/12/23 01:40:58;;;;;;;4.65;3.65;;;21.10;73.90;;;;;;5029253;28;23281;-60
2023/12/23 01:43:25;;;;;;;5.00;2.77;;;21.10;73.90;;;;;;5033025;28;20210;-62
2023/12/23 01:45:58;;;;;;;2.65;2.45;;;21.10;74.10;;;;;;5038628;28;20460;-60
2023/12/23 01:48:26;;;;;;;4.40;3.05;;;21.10;74.10;;;;;;5033848;28;20692;-61
2023/12/23 01:50:54;;;;;;;3.08;2.75;;;21.10;73.90;;;;;;5038909;28;20190;-62
2023/12/23 01:53:22;;;;;;;3.67;2.57;;;21.10;74.00;;;;;;5035072;28;20671;-63
2023/12/23 01:55:49;;;;;;;2.40;1.88;;;21.10;73.90;;;;;;5032653;28;20457;-59
2023/12/23 01:58:17;;;;;;;2.78;2.20;;;21.10;74.00;;;;;;5036399;28;20199;-60
2023/12/23 02:00:43;;;;;;;2.17;1.98;;;21.00;74.00;;;;;;5035714;28;20218;-61
2023/12/23 02:03:11;;;;;;;3.00;2.70;;;21.10;74.10;;;;;;5035410;28;20206;-62
2023/12/23 02:05:38;;;;;;;3.40;2.67;;;21.00;73.70;;;;;;5030548;28;20182;-63
2023/12/23 02:08:06;;;;;;;2.45;1.60;;;21.00;73.70;;;;;;5035979;28;20197;-62
2023/12/23 02:10:33;;;;;;;2.10;1.90;;;21.00;73.70;;;;;;5034644;28;21638;-62
2023/12/23 02:13:14;;;;;;;2.27;2.00;;;21.00;73.90;;;;;;5033911;28;20213;-62
2023/12/23 02:15:43;;;;;;;3.95;2.10;;;21.00;73.90;;;;;;5033392;28;20484;-62
2023/12/23 02:18:11;;;;;;;3.00;2.22;;;21.00;74.00;;;;;;5034735;28;24806;-63
2023/12/23 02:20:38;;;;;;;3.58;2.58;;;21.00;73.90;;;;;;5034533;28;20338;-62
2023/12/23 02:23:06;;;;;;;2.05;1.85;;;21.00;74.00;;;;;;5033692;28;20541;-62
2023/12/23 02:25:33;;;;;;;2.28;1.90;;;21.00;74.20;;;;;;5035439;28;20205;-62
2023/12/23 02:28:03;;;;;;;1.93;1.73;;;21.00;73.70;;;;;;5034905;28;20194;-59
2023/12/23 02:30:31;;;;;;;2.13;1.90;;;21.00;73.90;;;;;;5033401;28;20954;-61
2023/12/23 02:32:58;;;;;;;1.88;1.67;;;21.00;73.90;;;;;;5036779;28;20199;-62
2023/12/23 02:35:25;;;;;;;2.38;2.08;;;21.00;73.90;;;;;;5031929;28;20651;-62
2023/12/23 02:37:52;;;;;;;2.03;1.50;;;21.00;73.80;;;;;;5035131;28;20268;-62
2023/12/23 02:40:20;;;;;;;3.63;2.00;;;21.00;73.90;;;;;;5034151;28;20233;-61
2023/12/23 02:42:46;;;;;;;2.10;1.65;;;20.90;73.80;;;;;;5038550;28;20480;-60
2023/12/23 02:45:13;;;;;;;2.10;1.63;;;20.90;73.70;;;;;;5034534;28;20206;-61
2023/12/23 02:47:40;;;;;;;1.63;1.50;;;21.00;74.60;;;;;;5035386;28;20202;-62
2023/12/23 02:50:08;;;;;;;2.38;1.67;;;20.90;73.70;;;;;;5037290;28;20215;-61
2023/12/23 02:52:34;;;;;;;2.83;1.85;;;20.90;73.80;;;;;;5040325;28;20209;-62
2023/12/23 02:55:01;;;;;;;2.85;1.85;;;20.90;73.70;;;;;;5031354;28;20434;-61
2023/12/23 02:57:29;;;;;;;2.47;2.22;;;21.00;73.80;;;;;;5035568;28;20449;-60
2023/12/23 02:59:56;;;;;;;2.70;1.83;;;20.90;73.80;;;;;;5036092;28;20567;-60
2023/12/23 03:02:23;;;;;;;1.70;1.60;;;20.90;73.70;;;;;;5045683;28;20230;-61
2023/12/23 03:04:49;;;;;;;1.52;1.30;;;20.90;73.80;;;;;;5041617;28;20202;-62
2023/12/23 03:07:16;;;;;;;2.22;1.50;;;20.90;73.90;;;;;;5039473;28;20520;-62
2023/12/23 03:09:43;;;;;;;2.03;1.83;;;20.90;74.00;;;;;;5038817;28;20183;-61
2023/12/23 03:12:09;;;;;;;2.50;2.03;;;20.90;73.80;;;;;;5042606;28;20275;-63
2023/12/23 03:14:37;;;;;;;2.15;1.65;;;20.90;73.80;;;;;;5041465;28;20197;-62
2023/12/23 03:17:04;;;;;;;1.80;1.42;;;20.90;73.80;;;;;;5035577;28;20197;-62
2023/12/23 03:19:31;;;;;;;1.90;1.77;;;20.90;73.70;;;;;;5039353;28;21145;-61
2023/12/23 03:21:58;;;;;;;5.43;1.63;;;20.90;73.70;;;;;;5038611;28;20481;-61
2023/12/23 03:24:25;;;;;;;1.75;1.65;;;20.90;73.80;;;;;;5037894;28;20194;-62
2023/12/23 03:26:51;;;;;;;1.60;1.23;;;20.90;73.80;;;;;;5042598;28;20221;-62
2023/12/23 03:29:18;;;;;;;1.60;1.38;;;20.90;73.80;;;;;;5040629;28;20202;-61
2023/12/23 03:31:46;;;;;;;2.08;1.73;;;20.90;73.80;;;;;;5035612;28;20528;-61
2023/12/23 03:34:13;;;;;;;3.00;1.75;;;20.90;73.80;;;;;;5037214;28;20203;-61
2023/12/23 03:36:39;;;;;;;1.23;1.13;;;20.90;73.70;;;;;;5036704;28;20195;-61
2023/12/23 03:39:06;;;;;;;2.47;1.53;;;20.90;73.90;;;;;;5035179;28;20499;-63
2023/12/23 03:41:33;;;;;;;2.10;1.35;;;20.80;73.70;;;;;;5030714;28;21749;-62
2023/12/23 03:44:00;;;;;;;2.58;1.60;;;20.80;73.70;;;;;;5033184;28;20194;-62
2023/12/23 03:46:28;;;;;;;1.77;1.40;;;20.80;73.50;;;;;;5032974;28;20187;-62
2023/12/23 03:48:56;;;;;;;1.50;1.30;;;20.80;73.60;;;;;;5034122;28;20194;-62
2023/12/23 03:51:23;;;;;;;1.77;1.27;;;20.80;73.70;;;;;;5036873;28;20465;-62
2023/12/23 03:53:49;;;;;;;1.73;1.15;;;20.80;73.70;;;;;;5033579;28;20195;-62
2023/12/23 03:56:16;;;;;;;1.45;1.35;;;20.80;73.60;;;;;;5034125;28;20203;-62
2023/12/23 03:58:43;;;;;;;1.35;1.20;;;20.80;73.80;;;;;;5030976;28;20210;-61
2023/12/23 04:01:10;;;;;;;1.58;1.38;;;20.80;73.80;;;;;;5025969;28;20198;-62
2023/12/23 04:03:37;;;;;;;2.58;1.25;;;20.80;73.90;;;;;;5034458;28;20230;-62
2023/12/23 04:06:05;;;;;;;1.45;1.20;;;20.80;73.80;;;;;;5032466;28;20197;-62
2023/12/23 04:08:32;;;;;;;1.85;1.63;;;20.80;73.70;;;;;;5034233;28;20555;-62
2023/12/23 04:10:59;;;;;;;1.73;1.42;;;20.80;73.80;;;;;;5030752;28;20205;-62
2023/12/23 04:13:26;;;;;;;1.70;1.27;;;20.80;73.70;;;;;;5033207;28;20203;-62
2023/12/23 04:15:53;;;;;;;1.98;1.20;;;20.80;73.70;;;;;;5038164;28;20213;-62
2023/12/23 04:18:19;;;;;;;1.70;1.13;;;20.80;73.60;;;;;;5035209;28;20199;-63
2023/12/23 04:20:46;;;;;;;1.85;1.35;;;20.80;73.70;;;;;;5033652;28;20673;-62
2023/12/23 04:23:14;;;;;;;1.40;1.23;;;20.80;73.80;;;;;;5035973;28;20214;-62
2023/12/23 04:25:41;;;;;;;1.58;1.33;;;20.80;73.80;;;;;;5037533;28;20198;-63
2023/12/23 04:28:10;;;;;;;2.20;1.60;;;20.80;73.80;;;;;;5036007;28;20317;-59
2023/12/23 04:30:37;;;;;;;1.60;1.40;;;20.80;73.70;;;;;;5035919;28;20191;-61
2023/12/23 04:33:04;;;;;;;1.50;1.30;;;20.80;73.50;;;;;;5038338;28;20199;-61
2023/12/23 04:35:31;;;;;;;2.95;1.27;;;20.80;73.50;;;;;;5035483;28;20344;-63
2023/12/23 04:37:57;;;;;;;1.52;1.15;;;20.70;73.50;;;;;;5036240;28;20209;-61
2023/12/23 04:40:25;;;;;;;1.65;1.17;;;20.70;73.70;;;;;;5038008;28;20195;-62
2023/12/23 04:42:52;;;;;;;1.70;1.33;;;20.70;73.70;;;;;;5035743;28;20215;-62
2023/12/23 04:45:19;;;;;;;1.60;1.38;;;20.70;73.50;;;;;;5033285;28;20202;-62
2023/12/23 04:47:45;;;;;;;2.78;1.33;;;20.70;73.70;;;;;;5041253;28;20195;-60
2023/12/23 04:50:13;;;;;;;1.83;1.40;;;20.70;73.70;;;;;;5032115;28;20202;-61
2023/12/23 04:52:40;;;;;;;1.17;0.98;;;20.70;73.60;;;;;;5035584;28;20214;-61
2023/12/23 04:55:09;;;;;;;1.50;1.40;;;20.70;73.40;;;;;;5030279;28;20198;-60
2023/12/23 04:57:37;;;;;;;1.40;1.15;;;20.80;73.70;;;;;;5037783;28;20786;-61
2023/12/23 05:00:06;;;;;;;2.75;2.03;;;20.70;73.50;;;;;;5028436;28;20207;-62
2023/12/23 05:02:33;;;;;;;1.83;1.00;;;20.70;73.60;;;;;;5038060;28;20315;-61
2023/12/23 05:05:00;;;;;;;2.35;1.40;;;20.70;73.70;;;;;;5041940;28;20850;-61
2023/12/23 05:07:26;;;;;;;1.77;1.17;;;20.70;73.70;;;;;;5035178;28;20290;-61
2023/12/23 05:09:53;;;;;;;1.70;1.25;;;20.80;73.80;;;;;;5032834;28;20213;-61
2023/12/23 05:12:22;;;;;;;1.27;0.80;;;20.60;73.50;;;;;;5037208;28;20205;-61
2023/12/23 05:14:50;;;;;;;1.48;1.10;;;20.70;73.60;;;;;;5032827;28;20829;-61
2023/12/23 05:17:16;;;;;;;1.60;1.00;;;20.70;73.50;;;;;;5032934;28;20194;-61
2023/12/23 05:19:43;;;;;;;1.40;1.13;;;20.70;73.40;;;;;;5037714;28;20461;-61
2023/12/23 05:22:10;;;;;;;1.85;1.10;;;20.70;73.50;;;;;;5034022;28;20218;-61
2023/12/23 05:24:38;;;;;;;1.45;0.90;;;20.70;73.60;;;;;;5037017;28;20205;-62
2023/12/23 05:27:05;;;;;;;1.77;1.10;;;20.60;73.40;;;;;;5035335;28;20222;-61
2023/12/23 05:29:31;;;;;;;1.63;1.10;;;20.70;73.50;;;;;;5030387;28;20946;-58
2023/12/23 05:32:01;;;;;;;1.45;1.10;;;20.60;73.50;;;;;;5036298;28;20483;-61
2023/12/23 05:34:27;;;;;;;1.70;1.00;;;20.60;73.50;;;;;;5037710;28;20202;-62
2023/12/23 05:36:54;;;;;;;1.92;1.10;;;20.60;73.40;;;;;;5039328;28;20205;-61
2023/12/23 05:39:21;;;;;;;2.08;0.90;;;20.70;73.50;;;;;;5037571;28;20500;-61
2023/12/23 05:41:47;;;;;;;1.10;0.90;;;20.70;73.60;;;;;;5034502;28;20208;-61
2023/12/23 05:44:14;;;;;;;1.30;0.90;;;20.60;73.50;;;;;;5031065;28;20186;-61
2023/12/23 05:46:41;;;;;;;1.55;1.10;;;20.60;73.40;;;;;;5033875;28;20463;-62
2023/12/23 05:49:09;;;;;;;1.60;1.30;;;20.60;73.40;;;;;;5035163;28;20206;-61
2023/12/23 05:51:35;;;;;;;2.50;1.27;;;20.60;73.40;;;;;;5026060;28;20965;-60
2023/12/23 05:54:02;;;;;;;1.45;1.05;;;20.60;73.40;;;;;;5031534;28;20194;-61
2023/12/23 05:56:29;;;;;;;1.70;1.50;;;20.60;73.50;;;;;;5031045;28;20234;-60
2023/12/23 05:58:56;;;;;;;1.95;1.10;;;20.70;73.60;;;;;;5024426;28;20203;-62
2023/12/23 06:01:23;;;;;;;1.63;1.10;;;20.60;73.40;;;;;;5029467;28;20200;-62
2023/12/23 06:03:49;;;;;;;1.60;1.13;;;20.60;73.40;;;;;;5037121;28;20703;-61
2023/12/23 06:06:17;;;;;;;1.38;0.90;;;20.60;73.40;;;;;;5029475;28;20202;-62
2023/12/23 06:08:44;;;;;;;1.33;1.10;;;20.60;73.30;;;;;;5036822;28;20206;-60
2023/12/23 06:11:11;;;;;;;1.52;1.15;;;20.60;73.40;;;;;;5037572;28;20762;-62
2023/12/23 06:13:38;;;;;;;1.40;1.00;;;20.60;73.50;;;;;;5031115;28;20675;-61
2023/12/23 06:16:08;;;;;;;1.90;1.25;;;20.60;73.50;;;;;;5022778;28;21300;-61
2023/12/23 06:18:35;;;;;;;1.25;1.10;;;20.60;73.40;;;;;;5033625;28;20711;-62
2023/12/23 06:21:02;;;;;;;1.65;1.05;;;20.60;73.70;;;;;;5037204;28;20495;-59
2023/12/23 06:23:30;;;;;;;2.22;1.38;;;20.60;73.20;;;;;;5036156;28;20687;-61
2023/12/23 06:25:57;;;;;;;1.85;1.15;;;20.60;73.50;;;;;;5033370;28;20217;-61
2023/12/23 06:28:23;;;;;;;25.20;1.63;;;20.60;73.50;;;;;;5037359;28;20626;-61
2023/12/23 06:30:50;;;;;;;1.48;1.38;;;20.60;73.30;;;;;;5035118;28;20233;-62
2023/12/23 06:33:17;;;;;;;1.42;1.00;;;20.60;73.30;;;;;;5034007;28;20202;-60
2023/12/23 06:35:44;;;;;;;1.42;0.90;;;20.60;73.30;;;;;;5037546;28;20210;-60
2023/12/23 06:38:10;;;;;;;1.45;1.00;;;20.60;73.40;;;;;;5035765;28;20575;-61
2023/12/23 06:40:38;;;;;;;1.40;1.27;;;20.60;73.50;;;;;;5034114;28;20205;-60
2023/12/23 06:43:05;;;;;;;1.10;0.80;;;20.60;73.50;;;;;;5035112;28;20214;-60
2023/12/23 06:45:32;;;;;;;1.45;1.05;;;20.60;73.40;;;;;;5031289;28;20212;-61
2023/12/23 06:47:58;;;;;;;1.77;0.93;;;20.60;73.60;;;;;;5032400;28;20203;-61
2023/12/23 06:50:25;;;;;;;2.08;1.10;;;20.60;73.50;;;;;;5032094;28;20198;-59
2023/12/23 06:52:52;;;;;;;1.23;0.98;;;20.60;74.10;;;;;;5030914;28;20769;-62
2023/12/23 06:55:18;;;;;;;6.07;1.30;;;20.60;74.20;;;;;;5036090;28;20210;-62
2023/12/23 06:57:46;;;;;;;5.70;1.52;;;20.60;73.70;;;;;;5036046;28;28793;-61
2023/12/23 07:00:14;;;;;;;9.85;0.90;;;20.60;73.70;;;;;;5031187;28;20203;-61
2023/12/23 07:02:41;;;;;;;2.63;1.00;;;20.60;74.00;;;;;;5032084;28;20214;-62
2023/12/23 07:05:08;;;;;;;3.08;2.20;;;20.50;73.80;;;;;;5036429;28;20457;-61
2023/12/23 07:07:35;;;;;;;1.60;1.10;;;20.50;73.70;;;;;;5031373;28;20243;-62
2023/12/23 07:10:01;;;;;;;2.40;0.90;;;20.50;73.60;;;;;;5034918;28;20760;-62
2023/12/23 07:12:28;;;;;;;1.20;0.90;;;20.60;74.00;;;;;;5033912;28;20202;-62
2023/12/23 07:14:56;;;;;;;7.30;1.10;;;20.50;73.80;;;;;;5033955;28;20461;-62
2023/12/23 07:17:23;;;;;;;1.38;0.90;;;20.50;73.70;;;;;;5039311;28;20210;-62
2023/12/23 07:19:50;;;;;;;2.75;0.95;;;20.50;73.80;;;;;;5032873;28;20203;-62
2023/12/23 07:22:17;;;;;;;3.20;1.10;;;20.50;73.90;;;;;;5032995;28;20214;-62
2023/12/23 07:24:43;;;;;;;1.10;0.90;;;20.50;73.70;;;;;;5027600;28;20210;-62
2023/12/23 07:27:10;;;;;;;1.17;0.82;;;20.50;73.70;;;;;;5034040;28;20817;-61
2023/12/23 07:29:39;;;;;;;1.10;0.90;;;20.40;73.80;;;;;;5034755;28;20221;-62
2023/12/23 07:32:08;;;;;;;1.42;0.85;;;20.50;73.90;;;;;;5033580;28;20461;-61
2023/12/23 07:34:34;;;;;;;1.70;1.02;;;20.50;73.70;;;;;;5034571;28;20196;-57
2023/12/23 07:37:01;;;;;;;1.40;0.90;;;20.50;73.90;;;;;;5035822;28;20195;-62
2023/12/23 07:39:28;;;;;;;1.20;0.80;;;20.50;73.90;;;;;;5027096;28;21525;-65
2023/12/23 07:41:55;;;;;;;2.50;1.10;;;20.50;74.30;;;;;;5030957;28;20832;-65
2023/12/23 07:44:21;;;;;;;2.35;0.90;;;20.50;74.50;;;;;;5025071;28;20230;-63
2023/12/23 07:46:48;;;;;;;1.40;1.20;;;20.50;74.70;;;;;;5034602;28;20195;-61
2023/12/23 07:49:16;;;;;;;1.20;0.80;;;20.60;75.00;;;;;;5036690;28;20194;-62
2023/12/23 07:51:43;;;;;;;1.67;0.90;;;20.60;75.20;;;;;;5038013;28;20241;-60
2023/12/23 07:54:09;;;;;;;1.10;0.80;;;20.60;75.10;;;;;;5027011;28;20199;-64
2023/12/23 07:56:36;;;;;;;1.23;0.88;;;20.60;75.30;;;;;;5035682;28;20202;-61
2023/12/23 07:59:03;;;;;;;1.33;0.80;;;20.70;75.50;;;;;;5036416;28;20203;-63
2023/12/23 08:01:31;;;;;;;1.20;0.90;;;20.70;75.60;;;;;;5034285;28;20216;-63
2023/12/23 08:03:58;;;;;;;1.25;0.80;;;20.80;75.70;;;;;;5036853;28;20225;-55
2023/12/23 08:06:26;;;;;;;1.15;0.80;;;20.80;75.60;;;;;;5032453;28;20210;-63
2023/12/23 08:08:53;;;;;;;0.95;0.75;;;20.80;75.70;;;;;;5036195;28;20231;-62
2023/12/23 08:11:22;;;;;;;2.60;1.25;;;20.80;75.70;;;;;;5030589;28;20194;-64
2023/12/23 08:13:49;;;;;;;1.42;0.90;;;20.90;75.60;;;;;;5033984;28;20229;-61
2023/12/23 08:16:15;;;;;;;1.17;0.90;;;20.90;75.90;;;;;;5032422;28;20202;-65
2023/12/23 08:18:42;;;;;;;3.22;1.23;;;20.90;76.00;;;;;;5034199;28;20464;-66
2023/12/23 08:21:09;;;;;;;1.20;0.90;;;20.90;76.00;;;;;;5031800;28;20517;-67
2023/12/23 08:23:37;;;;;;;1.40;0.93;;;20.90;76.00;;;;;;5032516;28;20813;-64
2023/12/23 08:26:04;;;;;;;1.20;0.82;;;21.00;76.00;;;;;;5032659;28;20203;-59
2023/12/23 08:28:31;;;;;;;1.20;0.90;;;21.00;76.10;;;;;;5031840;28;20200;-65
2023/12/23 08:30:58;;;;;;;2.28;0.90;;;21.00;76.00;;;;;;5032425;28;20199;-64
2023/12/23 08:33:24;;;;;;;3.67;1.73;;;21.00;75.90;;;;;;5034883;28;20793;-61
2023/12/23 08:35:51;;;;;;;1.20;0.90;;;21.10;76.00;;;;;;5035412;28;20456;-61
2023/12/23 08:38:18;;;;;;;1.37;0.90;;;21.10;76.00;;;;;;5034338;28;20194;-64
2023/12/23 08:40:46;;;;;;;1.13;1.00;;;21.10;75.90;;;;;;5028871;28;20438;-63
2023/12/23 08:43:13;;;;;;;1.43;0.90;;;21.10;75.80;;;;;;5036474;28;20479;-64
2023/12/23 08:45:39;;;;;;;1.00;0.80;;;21.10;75.70;;;;;;5031676;28;20468;-64
2023/12/23 08:48:07;;;;;;;13.37;1.23;;;21.10;75.50;;;;;;5033655;28;20455;-63
2023/12/23 08:50:33;;;;;;;1.10;0.80;;;21.10;75.60;;;;;;5030462;28;20460;-63
2023/12/23 08:53:00;;;;;;;1.80;1.00;;;21.10;75.30;;;;;;5033406;28;20457;-63
2023/12/23 08:55:27;;;;;;;1.02;0.85;;;21.20;75.40;;;;;;5032208;28;20466;-63
2023/12/23 08:57:55;;;;;;;1.00;0.90;;;21.20;75.20;;;;;;5034496;28;20206;-63
2023/12/23 09:00:22;;;;;;;1.30;0.70;;;21.20;75.20;;;;;;5030141;28;20697;-63
2023/12/23 09:02:49;;;;;;;1.00;0.85;;;21.20;75.20;;;;;;5037126;28;20456;-63
2023/12/23 09:05:15;;;;;;;1.30;0.87;;;21.20;75.00;;;;;;5035403;28;20206;-64
2023/12/23 09:07:42;;;;;;;1.33;0.93;;;21.20;75.00;;;;;;5036710;28;20465;-64
2023/12/23 09:10:09;;;;;;;1.05;0.85;;;21.10;74.70;;;;;;5030655;28;20484;-63
2023/12/23 09:12:36;;;;;;;1.33;0.98;;;21.20;74.80;;;;;;5036524;28;20214;-63
2023/12/23 09:15:05;;;;;;;1.10;0.77;;;21.20;74.70;;;;;;5039279;28;20255;-64
2023/12/23 09:17:32;;;;;;;1.43;0.70;;;21.20;74.60;;;;;;5038570;28;20461;-63
2023/12/23 09:19:58;;;;;;;1.00;0.87;;;21.20;74.50;;;;;;5037591;28;20973;-63
2023/12/23 09:22:25;;;;;;;1.33;1.20;;;21.20;74.40;;;;;;5038651;28;20467;-64
2023/12/23 09:24:52;;;;;;;1.47;0.90;;;21.20;74.30;;;;;;5037688;28;20488;-64
2023/12/23 09:27:19;;;;;;;1.00;0.70;;;21.20;74.10;;;;;;5037152;28;20458;-64
2023/12/23 09:29:46;;;;;;;1.10;0.80;;;21.20;74.20;;;;;;5035916;28;20204;-64
2023/12/23 09:32:14;;;;;;;1.10;0.83;;;21.20;74.20;;;;;;5039987;28;20457;-64
2023/12/23 09:34:40;;;;;;;1.00;0.80;;;21.20;74.10;;;;;;5035319;28;20465;-63
2023/12/23 09:37:07;;;;;;;1.50;0.70;;;21.20;74.10;;;;;;5038181;28;20826;-63
2023/12/23 09:39:34;;;;;;;1.90;1.13;;;21.20;74.00;;;;;;5034727;28;20468;-63
2023/12/23 09:42:01;;;;;;;1.27;0.70;;;21.20;73.90;;;;;;5036976;28;20976;-63
2023/12/23 09:44:27;;;;;;;1.50;0.90;;;21.20;73.90;;;;;;5031436;28;20480;-64
2023/12/23 09:46:55;;;;;;;1.20;0.83;;;21.20;73.80;;;;;;5038075;28;20476;-64
2023/12/23 09:49:24;;;;;;;1.43;0.90;;;21.20;73.90;;;;;;5037149;28;21114;-63
2023/12/23 09:51:51;;;;;;;1.00;0.70;;;21.20;73.70;;;;;;5036074;28;20503;-63
2023/12/23 09:54:23;;;;;;;1.23;0.73;;;21.20;73.60;;;;;;5029069;28;20491;-65
2023/12/23 09:56:51;;;;;;;1.57;0.80;;;21.20;74.10;;;;;;5041830;28;20684;-64
2023/12/23 09:59:18;;;;;;;2.50;0.93;;;21.20;74.20;;;;;;5035586;28;21627;-64
2023/12/23 10:01:45;;;;;;;2.80;1.33;;;21.20;74.30;;;;;;5035490;28;20957;-66
2023/12/23 10:04:12;;;;;;;1.95;0.93;;;21.20;75.20;;;;;;5028925;28;21286;-62
2023/12/23 10:06:41;;;;;;;1.23;0.60;;;21.10;74.50;;;;;;5028696;28;20664;-65
2023/12/23 10:09:09;;;;;;;1.00;0.60;;;21.20;74.60;;;;;;5033526;28;20452;-63
2023/12/23 10:11:36;;;;;;;1.10;0.83;;;21.20;74.80;;;;;;5033591;28;20464;-65
2023/12/23 10:14:02;;;;;;;1.33;0.80;;;21.20;74.80;;;;;;5029988;28;20466;-65
2023/12/23 10:16:29;;;;;;;1.07;0.70;;;21.20;74.80;;;;;;5034205;28;20457;-60
2023/12/23 10:18:56;;;;;;;1.00;0.77;;;21.30;74.90;;;;;;5030369;28;20852;-62
2023/12/23 10:21:23;;;;;;;1.43;0.80;;;21.30;75.00;;;;;;5033625;28;20659;-64
2023/12/23 10:23:53;;;;;;;1.10;0.70;;;21.30;75.00;;;;;;5029336;28;21082;-59
2023/12/23 10:26:20;;;;;;;2.95;1.75;;;21.30;75.00;;;;;;5030797;28;20630;-63
2023/12/23 10:28:54;;;;;;;1.10;0.80;;;21.30;75.00;;;;;;5025549;28;20780;-63
2023/12/23 10:31:25;;;;;;;1.33;0.90;;;21.30;75.00;;;;;;5033245;28;20472;-62
2023/12/23 10:33:57;;;;;;;1.70;1.03;;;21.40;75.20;;;;;;5029361;28;20457;-62
2023/12/23 10:36:26;;;;;;;1.10;0.90;;;21.40;75.00;;;;;;5033562;28;20456;-62
2023/12/23 10:38:57;;;;;;;1.10;0.70;;;21.40;75.00;;;;;;5027330;28;20467;-62
2023/12/23 10:41:35;;;;;;;1.60;0.97;;;21.30;75.00;;;;;;5029802;28;20578;-59
2023/12/23 10:44:04;;;;;;;1.83;0.80;;;21.40;75.10;;;;;;5034734;28;20473;-60
2023/12/23 10:46:32;;;;;;;2.40;0.73;;;21.40;75.10;;;;;;5035935;28;20461;-60
2023/12/23 10:48:59;;;;;;;1.00;0.70;;;21.40;75.10;;;;;;5034721;28;20892;-62
2023/12/23 10:51:27;;;;;;;1.87;0.90;;;21.40;75.30;;;;;;5033730;28;20836;-63
2023/12/23 10:53:56;;;;;;;2.10;0.80;;;21.40;75.30;;;;;;5029214;28;20669;-63
2023/12/23 10:56:25;;;;;;;1.00;0.80;;;21.40;75.40;;;;;;5032620;28;20497;-65
2023/12/23 10:58:52;;;;;;;1.30;0.80;;;21.40;75.50;;;;;;5036675;28;20818;-68
2023/12/23 11:01:21;;;;;;;2.40;0.90;;;21.40;75.60;;;;;;5030356;28;20462;-62
2023/12/23 11:03:51;;;;;;;1.20;0.90;;;21.40;75.70;;;;;;5033596;28;20485;-62
2023/12/23 11:06:19;;;;;;;1.57;1.03;;;21.40;75.70;;;;;;5035115;28;20493;-64
2023/12/23 11:08:47;;;;;;;1.33;0.90;;;21.40;75.70;;;;;;5032075;28;21285;-66
2023/12/23 11:11:16;;;;;;;1.37;0.80;;;21.50;76.70;;;;;;5032153;28;20464;-65
2023/12/23 11:13:43;;;;;;;1.20;0.80;;;21.50;76.00;;;;;;5035699;28;20456;-67
2023/12/23 11:16:11;;;;;;;1.13;0.90;;;21.50;75.90;;;;;;5039640;28;20444;-64
2023/12/23 11:18:40;;;;;;;3.53;1.13;;;21.50;75.80;;;;;;5027270;28;20468;-64
2023/12/23 11:21:16;;;;;;;1.10;0.90;;;21.50;75.70;;;;;;5040874;28;20471;-66
2023/12/23 11:23:42;;;;;;;1.50;0.80;;;21.50;75.70;;;;;;5032842;28;21046;-68
2023/12/23 11:26:41;;;;;;;1.67;0.80;;;21.50;75.70;;;;;;5036800;28;20468;-68
2023/12/23 11:29:08;;;;;;;1.27;0.87;;;21.60;75.80;;;;;;5035179;28;20818;-69
2023/12/23 11:31:35;;;;;;;2.17;1.10;;;21.60;75.90;;;;;;5033477;28;20854;-64
2023/12/23 11:34:12;;;;;;;2.07;1.17;;;21.60;76.00;;;;;;5037745;28;20473;-65
2023/12/23 11:36:38;;;;;;;2.23;1.07;;;21.60;75.80;;;;;;5037565;28;20448;-65
2023/12/23 11:39:06;;;;;;;1.20;0.90;;;21.60;75.90;;;;;;5038370;28;20457;-64
2023/12/23 11:41:35;;;;;;;1.67;0.93;;;21.60;75.80;;;;;;5035805;28;20453;-65
2023/12/23 11:44:02;;;;;;;3.50;1.27;;;21.70;75.90;;;;;;5032788;28;20487;-65
2023/12/23 11:46:30;;;;;;;1.10;0.80;;;21.70;76.00;;;;;;5035823;28;21095;-63
2023/12/23 11:48:56;;;;;;;1.70;1.40;;;21.70;75.90;;;;;;5038633;28;20456;-59
2023/12/23 11:51:24;;;;;;;3.30;0.90;;;21.70;76.10;;;;;;5034991;28;20876;-64
2023/12/23 11:53:51;;;;;;;1.87;1.07;;;21.70;76.00;;;;;;5036573;28;20469;-64
2023/12/23 11:56:18;;;;;;;1.77;1.30;;;21.70;75.90;;;;;;5035558;28;20691;-63
2023/12/23 11:58:46;;;;;;;2.13;0.90;;;21.70;76.00;;;;;;5034000;28;21044;-64
2023/12/23 12:01:13;;;;;;;3.13;1.10;;;21.80;76.00;;;;;;5027822;28;20815;-63
2023/12/23 12:03:39;;;;;;;1.70;1.43;;;21.80;76.00;;;;;;5033073;28;20461;-63
2023/12/23 12:06:06;;;;;;;2.63;1.33;;;21.80;76.00;;;;;;5034380;28;20461;-62
2023/12/23 12:08:33;;;;;;;4.00;1.10;;;21.80;76.10;;;;;;5034494;28;20802;-61
2023/12/23 12:11:02;;;;;;;1.90;1.30;;;21.80;76.00;;;;;;5027291;28;20461;-58
2023/12/23 12:13:29;;;;;;;2.50;1.10;;;21.80;76.00;;;;;;5028989;28;20465;-64
2023/12/23 12:15:57;;;;;;;1.93;1.20;;;21.80;76.00;;;;;;5031556;28;20483;-61
2023/12/23 12:18:24;;;;;;;3.30;1.77;;;21.80;76.00;;;;;;5032941;28;20484;-62
2023/12/23 12:20:50;;;;;;;1.70;1.20;;;21.80;76.00;;;;;;5031676;28;20500;-59
2023/12/23 12:23:17;;;;;;;1.37;1.10;;;21.80;76.10;;;;;;5035390;28;20458;-64
2023/12/23 12:25:49;;;;;;;1.60;1.23;;;21.80;76.20;;;;;;5035124;28;20495;-59
2023/12/23 12:28:16;;;;;;;2.30;1.30;;;21.80;76.20;;;;;;5036431;28;20591;-62
2023/12/23 12:30:45;;;;;;;3.00;1.30;;;21.80;76.10;;;;;;5036463;28;21076;-61
2023/12/23 12:33:13;;;;;;;2.30;1.13;;;21.80;76.10;;;;;;5034524;28;20960;-61
2023/12/23 12:35:41;;;;;;;3.03;1.50;;;21.80;76.20;;;;;;5036439;28;20464;-61
2023/12/23 12:38:08;;;;;;;2.60;1.63;;;21.70;76.10;;;;;;5037190;28;20814;-63
2023/12/23 12:40:35;;;;;;;3.87;1.50;;;21.80;76.30;;;;;;5036190;28;20952;-61
2023/12/23 12:43:05;;;;;;;2.77;1.67;;;21.80;76.20;;;;;;5037912;28;20453;-62
2023/12/23 12:45:36;;;;;;;2.20;1.30;;;21.80;76.20;;;;;;5037162;28;20477;-62